This is the latest recevied weather packets stored in our database for station/object W7OWO-1. If no packets are shown the sender has not sent any weather packets the latest 10 day(s).
| Time | Temp. | Humidity | Pressure | Rain* | Wind** | Luminosity | Snow |
|---|---|---|---|---|---|---|---|
| 1777480563 | 13.33° C | 68% | 1024.2 hPa | 0 mm | - | - | - |
| 1777476963 | 11.67° C | 76% | 1024.7 hPa | 0 mm | - | - | - |
| 1777474443 | 7.78° C | 90% | 1024.7 hPa | 0 mm | - | - | - |
| 1777472283 | 5.56° C | 96% | 1024.7 hPa | 0 mm | - | - | - |
| 1777470303 | 3.89° C | 99% | 1024.6 hPa | 0 mm | - | - | - |
| 1777468143 | 3.33° C | 98% | 1024.6 hPa | 0 mm | - | - | - |
| 1777463643 | 3.89° C | 96% | 1024.4 hPa | 0 mm | - | - | - |
| 1777460403 | 5° C | 94% | 1024.2 hPa | 0 mm | - | - | - |
| 1777460043 | 5° C | 94% | 1024.3 hPa | 0 mm | - | - | - |
| 1777459504 | 5° C | 94% | 1024.1 hPa | 0 mm | - | - | - |
| 1777458423 | 5.56° C | 93% | 1024 hPa | 0 mm | - | - | - |
| 1777457343 | 5.56° C | 92% | 1023.9 hPa | 0 mm | - | - | - |
| 1777456803 | 6.11° C | 91% | 1024 hPa | 0 mm | - | - | - |
| 1777454283 | 7.22° C | 89% | 1024 hPa | 0 mm | - | - | - |
| 1777450143 | 8.33° C | 86% | 1024.3 hPa | 0 mm | - | - | - |
| 1777449603 | 8.33° C | 86% | 1024.2 hPa | 0 mm | - | - | - |
| 1777445643 | 7.78° C | 87% | 1024 hPa | 0 mm | - | - | - |
| 1777445103 | 8.33° C | 86% | 1023.9 hPa | 0 mm | - | - | - |
| 1777444563 | 8.33° C | 85% | 1023.8 hPa | 0 mm | - | - | - |
| 1777443483 | 8.89° C | 83% | 1023.8 hPa | 0 mm | - | - | - |
| 1777442943 | 8.89° C | 83% | 1023.7 hPa | 0 mm | - | - | - |
| 1777440423 | 10° C | 79% | 1023.7 hPa | 0 mm | - | - | - |
| 1777438803 | 10° C | 79% | 1023.8 hPa | 0 mm | - | - | - |
| 1777435743 | 10° C | 81% | 1023.5 hPa | 0 mm | - | - | - |
| 1777434843 | 10° C | 79% | 1023.2 hPa | 0 mm | - | - | - |
* Rain latest hour (hover to see other rain measurements)
** Current wind speed in m/s (hover to see current wind gust speed)